sensor_id;sensor_type;location;lat;lon;timestamp;P1;durP1;ratioP1;P2;durP2;ratioP2
54368;SDS011;40266;52.434;17.056;2024-03-02T00:23:27;78.50;;;47.40;;
54368;SDS011;40266;52.434;17.056;2024-03-02T01:53:06;76.30;;;41.40;;
54368;SDS011;40266;52.434;17.056;2024-03-02T01:56:35;75.80;;;42.40;;
54368;SDS011;40266;52.434;17.056;2024-03-02T03:00:30;62.20;;;37.00;;
54368;SDS011;40266;52.434;17.056;2024-03-02T03:12:17;66.80;;;37.50;;
54368;SDS011;40266;52.434;17.056;2024-03-02T03:19:44;66.00;;;37.50;;
54368;SDS011;40266;52.434;17.056;2024-03-02T03:27:25;70.70;;;38.20;;
54368;SDS011;40266;52.434;17.056;2024-03-02T03:52:12;70.70;;;36.40;;
54368;SDS011;40266;52.434;17.056;2024-03-02T04:44:05;59.50;;;34.70;;
54368;SDS011;40266;52.434;17.056;2024-03-02T04:47:59;64.60;;;34.60;;
54368;SDS011;40266;52.434;17.056;2024-03-02T04:51:31;57.90;;;33.90;;
54368;SDS011;40266;52.434;17.056;2024-03-02T05:59:14;63.90;;;35.70;;
54368;SDS011;40266;52.434;17.056;2024-03-02T06:09:33;63.70;;;35.60;;
54368;SDS011;40266;52.434;17.056;2024-03-02T06:13:12;58.90;;;33.60;;
54368;SDS011;40266;52.434;17.056;2024-03-02T06:20:01;61.00;;;34.00;;
54368;SDS011;40266;52.434;17.056;2024-03-02T06:30:29;61.40;;;33.50;;
54368;SDS011;40266;52.434;17.056;2024-03-02T06:33:59;60.90;;;36.20;;
54368;SDS011;40266;52.434;17.056;2024-03-02T06:40:55;63.50;;;34.20;;
54368;SDS011;40266;52.434;17.056;2024-03-02T06:44:03;66.70;;;36.40;;
54368;SDS011;40266;52.434;17.056;2024-03-02T07:02:02;64.80;;;35.90;;
54368;SDS011;40266;52.434;17.056;2024-03-02T07:16:56;70.20;;;38.30;;
54368;SDS011;40266;52.434;17.056;2024-03-02T07:28:09;61.20;;;35.30;;
54368;SDS011;40266;52.434;17.056;2024-03-02T07:38:02;58.90;;;33.50;;
54368;SDS011;40266;52.434;17.056;2024-03-02T07:56:49;55.10;;;31.00;;
54368;SDS011;40266;52.434;17.056;2024-03-02T08:00:26;55.80;;;32.20;;
54368;SDS011;40266;52.434;17.056;2024-03-02T08:07:25;57.80;;;33.30;;
54368;SDS011;40266;52.434;17.056;2024-03-02T08:14:31;54.70;;;31.60;;
54368;SDS011;40266;52.434;17.056;2024-03-02T08:25:00;49.90;;;29.30;;
54368;SDS011;40266;52.434;17.056;2024-03-02T08:28:18;54.20;;;31.00;;
54368;SDS011;40266;52.434;17.056;2024-03-02T08:31:34;50.70;;;30.00;;
54368;SDS011;40266;52.434;17.056;2024-03-02T08:49:19;45.00;;;28.00;;
54368;SDS011;40266;52.434;17.056;2024-03-02T08:52:27;50.60;;;28.70;;
54368;SDS011;40266;52.434;17.056;2024-03-02T08:55:19;43.90;;;26.30;;
54368;SDS011;40266;52.434;17.056;2024-03-02T08:58:12;48.10;;;29.80;;
54368;SDS011;40266;52.434;17.056;2024-03-02T09:01:28;46.70;;;27.70;;
54368;SDS011;40266;52.434;17.056;2024-03-02T09:04:51;45.40;;;27.40;;
54368;SDS011;40266;52.434;17.056;2024-03-02T09:07:40;46.70;;;27.90;;
54368;SDS011;40266;52.434;17.056;2024-03-02T09:10:32;41.40;;;26.70;;
54368;SDS011;40266;52.434;17.056;2024-03-02T09:13:18;47.90;;;27.20;;
54368;SDS011;40266;52.434;17.056;2024-03-02T09:23:20;47.70;;;27.90;;
54368;SDS011;40266;52.434;17.056;2024-03-02T09:26:35;44.40;;;25.90;;
54368;SDS011;40266;52.434;17.056;2024-03-02T09:33:05;45.70;;;27.50;;
54368;SDS011;40266;52.434;17.056;2024-03-02T09:36:52;42.70;;;25.30;;
54368;SDS011;40266;52.434;17.056;2024-03-02T09:43:37;43.70;;;27.40;;
54368;SDS011;40266;52.434;17.056;2024-03-02T09:46:44;39.00;;;25.10;;
54368;SDS011;40266;52.434;17.056;2024-03-02T09:53:29;40.70;;;24.70;;
54368;SDS011;40266;52.434;17.056;2024-03-02T09:56:31;48.30;;;27.90;;
54368;SDS011;40266;52.434;17.056;2024-03-02T09:59:37;42.20;;;26.80;;
54368;SDS011;40266;52.434;17.056;2024-03-02T10:08:48;41.70;;;26.40;;
54368;SDS011;40266;52.434;17.056;2024-03-02T10:11:37;45.10;;;26.50;;
54368;SDS011;40266;52.434;17.056;2024-03-02T10:18:01;40.70;;;26.40;;
54368;SDS011;40266;52.434;17.056;2024-03-02T10:21:17;46.20;;;27.60;;
54368;SDS011;40266;52.434;17.056;2024-03-02T10:30:34;42.00;;;26.70;;
54368;SDS011;40266;52.434;17.056;2024-03-02T10:34:13;43.60;;;26.20;;
54368;SDS011;40266;52.434;17.056;2024-03-02T10:37:06;42.10;;;26.60;;
54368;SDS011;40266;52.434;17.056;2024-03-02T10:46:49;45.30;;;26.80;;
54368;SDS011;40266;52.434;17.056;2024-03-02T10:52:54;45.80;;;27.80;;
54368;SDS011;40266;52.434;17.056;2024-03-02T10:56:07;43.60;;;27.70;;
54368;SDS011;40266;52.434;17.056;2024-03-02T11:10:06;43.40;;;27.90;;
54368;SDS011;40266;52.434;17.056;2024-03-02T11:13:27;42.70;;;27.30;;
54368;SDS011;40266;52.434;17.056;2024-03-02T11:16:37;42.20;;;26.00;;
54368;SDS011;40266;52.434;17.056;2024-03-02T11:19:24;41.00;;;26.50;;
54368;SDS011;40266;52.434;17.056;2024-03-02T11:22:30;44.50;;;28.20;;
54368;SDS011;40266;52.434;17.056;2024-03-02T11:25:24;44.30;;;27.10;;
54368;SDS011;40266;52.434;17.056;2024-03-02T11:28:11;44.50;;;26.70;;
54368;SDS011;40266;52.434;17.056;2024-03-02T11:32:01;45.50;;;27.50;;
54368;SDS011;40266;52.434;17.056;2024-03-02T11:38:20;42.30;;;26.50;;
54368;SDS011;40266;52.434;17.056;2024-03-02T11:41:52;44.30;;;27.80;;
54368;SDS011;40266;52.434;17.056;2024-03-02T11:44:46;43.20;;;27.80;;
54368;SDS011;40266;52.434;17.056;2024-03-02T11:47:31;43.90;;;26.20;;
54368;SDS011;40266;52.434;17.056;2024-03-02T11:50:30;47.50;;;27.90;;
54368;SDS011;40266;52.434;17.056;2024-03-02T11:53:17;45.50;;;28.00;;
54368;SDS011;40266;52.434;17.056;2024-03-02T11:56:34;45.50;;;28.00;;
54368;SDS011;40266;52.434;17.056;2024-03-02T12:06:29;44.30;;;28.30;;
54368;SDS011;40266;52.434;17.056;2024-03-02T12:09:43;40.50;;;25.40;;
54368;SDS011;40266;52.434;17.056;2024-03-02T12:24:23;46.10;;;27.70;;
54368;SDS011;40266;52.434;17.056;2024-03-02T12:27:39;43.30;;;28.00;;
54368;SDS011;40266;52.434;17.056;2024-03-02T12:38:42;43.90;;;25.80;;
54368;SDS011;40266;52.434;17.056;2024-03-02T12:42:14;42.10;;;27.00;;
54368;SDS011;40266;52.434;17.056;2024-03-02T12:45:47;44.50;;;27.00;;
54368;SDS011;40266;52.434;17.056;2024-03-02T12:49:04;39.00;;;26.40;;
54368;SDS011;40266;52.434;17.056;2024-03-02T12:55:03;41.60;;;27.70;;
54368;SDS011;40266;52.434;17.056;2024-03-02T12:58:29;41.20;;;26.40;;
54368;SDS011;40266;52.434;17.056;2024-03-02T13:04:53;39.90;;;25.80;;
54368;SDS011;40266;52.434;17.056;2024-03-02T13:10:51;41.30;;;26.80;;
54368;SDS011;40266;52.434;17.056;2024-03-02T13:13:43;43.80;;;27.50;;
54368;SDS011;40266;52.434;17.056;2024-03-02T13:17:28;40.50;;;26.00;;
54368;SDS011;40266;52.434;17.056;2024-03-02T13:20:08;40.10;;;25.40;;
54368;SDS011;40266;52.434;17.056;2024-03-02T13:23:06;39.90;;;26.50;;
54368;SDS011;40266;52.434;17.056;2024-03-02T13:25:49;42.20;;;26.30;;
54368;SDS011;40266;52.434;17.056;2024-03-02T13:28:32;39.00;;;25.40;;
54368;SDS011;40266;52.434;17.056;2024-03-02T13:31:20;40.70;;;25.80;;
54368;SDS011;40266;52.434;17.056;2024-03-02T13:34:03;40.70;;;25.00;;
54368;SDS011;40266;52.434;17.056;2024-03-02T13:36:46;39.00;;;26.10;;
54368;SDS011;40266;52.434;17.056;2024-03-02T13:39:49;39.80;;;25.50;;
54368;SDS011;40266;52.434;17.056;2024-03-02T13:43:02;35.40;;;24.60;;
54368;SDS011;40266;52.434;17.056;2024-03-02T13:45:49;37.90;;;24.80;;
54368;SDS011;40266;52.434;17.056;2024-03-02T13:48:41;34.70;;;23.10;;
54368;SDS011;40266;52.434;17.056;2024-03-02T13:51:33;41.20;;;25.80;;
54368;SDS011;40266;52.434;17.056;2024-03-02T13:57:59;39.10;;;25.10;;
54368;SDS011;40266;52.434;17.056;2024-03-02T14:01:04;35.60;;;22.60;;
54368;SDS011;40266;52.434;17.056;2024-03-02T14:03:50;40.60;;;24.40;;
54368;SDS011;40266;52.434;17.056;2024-03-02T14:10:20;37.30;;;23.00;;
54368;SDS011;40266;52.434;17.056;2024-03-02T14:13:37;35.80;;;22.90;;
54368;SDS011;40266;52.434;17.056;2024-03-02T14:16:27;40.70;;;24.90;;
54368;SDS011;40266;52.434;17.056;2024-03-02T14:19:25;46.90;;;27.60;;
54368;SDS011;40266;52.434;17.056;2024-03-02T14:22:08;39.10;;;23.50;;
54368;SDS011;40266;52.434;17.056;2024-03-02T14:24:54;38.00;;;25.20;;
54368;SDS011;40266;52.434;17.056;2024-03-02T14:27:39;38.40;;;24.50;;
54368;SDS011;40266;52.434;17.056;2024-03-02T14:30:51;44.90;;;24.70;;
54368;SDS011;40266;52.434;17.056;2024-03-02T14:33:43;39.60;;;26.30;;
54368;SDS011;40266;52.434;17.056;2024-03-02T14:39:48;38.80;;;25.30;;
54368;SDS011;40266;52.434;17.056;2024-03-02T14:42:51;40.20;;;24.40;;
54368;SDS011;40266;52.434;17.056;2024-03-02T14:45:37;41.90;;;25.80;;
54368;SDS011;40266;52.434;17.056;2024-03-02T14:48:21;40.30;;;24.90;;
54368;SDS011;40266;52.434;17.056;2024-03-02T14:51:04;38.40;;;25.40;;
54368;SDS011;40266;52.434;17.056;2024-03-02T14:53:49;38.40;;;23.60;;
54368;SDS011;40266;52.434;17.056;2024-03-02T14:56:41;37.80;;;24.30;;
54368;SDS011;40266;52.434;17.056;2024-03-02T14:59:45;38.60;;;25.20;;
54368;SDS011;40266;52.434;17.056;2024-03-02T15:02:31;47.80;;;28.10;;
54368;SDS011;40266;52.434;17.056;2024-03-02T15:05:45;41.00;;;25.70;;
54368;SDS011;40266;52.434;17.056;2024-03-02T15:08:31;44.70;;;25.30;;
54368;SDS011;40266;52.434;17.056;2024-03-02T15:11:15;43.70;;;25.90;;
54368;SDS011;40266;52.434;17.056;2024-03-02T15:13:58;42.20;;;26.50;;
54368;SDS011;40266;52.434;17.056;2024-03-02T15:19:49;41.20;;;25.80;;
54368;SDS011;40266;52.434;17.056;2024-03-02T15:23:00;37.90;;;25.00;;
54368;SDS011;40266;52.434;17.056;2024-03-02T15:25:51;43.10;;;26.30;;
54368;SDS011;40266;52.434;17.056;2024-03-02T15:28:45;41.50;;;24.00;;
54368;SDS011;40266;52.434;17.056;2024-03-02T15:31:38;41.80;;;25.40;;
54368;SDS011;40266;52.434;17.056;2024-03-02T15:41:27;43.10;;;27.50;;
54368;SDS011;40266;52.434;17.056;2024-03-02T15:44:31;45.20;;;27.90;;
54368;SDS011;40266;52.434;17.056;2024-03-02T16:10:32;43.60;;;26.90;;
54368;SDS011;40266;52.434;17.056;2024-03-02T16:14:00;42.00;;;25.80;;
54368;SDS011;40266;52.434;17.056;2024-03-02T16:20:24;42.70;;;24.80;;
54368;SDS011;40266;52.434;17.056;2024-03-02T16:23:16;45.30;;;26.30;;
54368;SDS011;40266;52.434;17.056;2024-03-02T16:26:22;41.40;;;25.70;;
54368;SDS011;40266;52.434;17.056;2024-03-02T16:29:15;41.70;;;25.30;;
54368;SDS011;40266;52.434;17.056;2024-03-02T16:32:28;43.50;;;25.80;;
54368;SDS011;40266;52.434;17.056;2024-03-02T16:35:11;44.10;;;26.20;;
54368;SDS011;40266;52.434;17.056;2024-03-02T16:38:02;40.30;;;25.90;;
54368;SDS011;40266;52.434;17.056;2024-03-02T16:40:45;41.10;;;24.50;;
54368;SDS011;40266;52.434;17.056;2024-03-02T16:43:30;47.40;;;27.60;;
54368;SDS011;40266;52.434;17.056;2024-03-02T16:49:36;45.20;;;26.90;;
54368;SDS011;40266;52.434;17.056;2024-03-02T16:59:34;45.60;;;28.60;;
54368;SDS011;40266;52.434;17.056;2024-03-02T17:02:21;44.10;;;28.30;;
54368;SDS011;40266;52.434;17.056;2024-03-02T17:05:15;40.40;;;26.10;;
54368;SDS011;40266;52.434;17.056;2024-03-02T17:08:29;45.20;;;29.80;;
54368;SDS011;40266;52.434;17.056;2024-03-02T17:11:14;52.20;;;29.80;;
54368;SDS011;40266;52.434;17.056;2024-03-02T17:14:35;49.50;;;30.00;;
54368;SDS011;40266;52.434;17.056;2024-03-02T17:17:17;47.80;;;30.50;;
54368;SDS011;40266;52.434;17.056;2024-03-02T17:20:04;51.70;;;32.70;;
54368;SDS011;40266;52.434;17.056;2024-03-02T17:22:57;48.40;;;30.30;;
54368;SDS011;40266;52.434;17.056;2024-03-02T17:26:05;50.50;;;30.40;;
54368;SDS011;40266;52.434;17.056;2024-03-02T17:28:49;49.20;;;32.40;;
54368;SDS011;40266;52.434;17.056;2024-03-02T17:31:35;50.90;;;31.90;;
54368;SDS011;40266;52.434;17.056;2024-03-02T17:34:32;50.70;;;31.80;;
54368;SDS011;40266;52.434;17.056;2024-03-02T17:37:15;46.90;;;30.60;;
54368;SDS011;40266;52.434;17.056;2024-03-02T17:43:41;49.80;;;30.60;;
54368;SDS011;40266;52.434;17.056;2024-03-02T17:46:40;56.40;;;33.50;;
54368;SDS011;40266;52.434;17.056;2024-03-02T17:49:26;54.00;;;33.60;;
54368;SDS011;40266;52.434;17.056;2024-03-02T17:52:20;57.30;;;33.70;;
54368;SDS011;40266;52.434;17.056;2024-03-02T17:55:15;55.40;;;33.40;;
54368;SDS011;40266;52.434;17.056;2024-03-02T17:57:58;55.10;;;34.60;;
54368;SDS011;40266;52.434;17.056;2024-03-02T18:00:44;59.60;;;34.00;;
54368;SDS011;40266;52.434;17.056;2024-03-02T18:03:52;57.50;;;34.90;;
54368;SDS011;40266;52.434;17.056;2024-03-02T18:07:07;53.20;;;34.30;;
54368;SDS011;40266;52.434;17.056;2024-03-02T18:09:50;54.80;;;34.60;;
54368;SDS011;40266;52.434;17.056;2024-03-02T18:12:57;56.80;;;34.80;;
54368;SDS011;40266;52.434;17.056;2024-03-02T18:15:51;56.50;;;33.20;;
54368;SDS011;40266;52.434;17.056;2024-03-02T18:25:48;57.10;;;35.20;;
54368;SDS011;40266;52.434;17.056;2024-03-02T18:28:35;59.00;;;36.10;;
54368;SDS011;40266;52.434;17.056;2024-03-02T18:31:51;60.60;;;36.80;;
54368;SDS011;40266;52.434;17.056;2024-03-02T18:34:44;60.40;;;36.10;;
54368;SDS011;40266;52.434;17.056;2024-03-02T18:37:59;57.20;;;35.60;;
54368;SDS011;40266;52.434;17.056;2024-03-02T18:41:09;62.80;;;37.00;;
54368;SDS011;40266;52.434;17.056;2024-03-02T18:44:02;57.10;;;34.60;;
54368;SDS011;40266;52.434;17.056;2024-03-02T18:47:08;58.90;;;36.20;;
54368;SDS011;40266;52.434;17.056;2024-03-02T18:50:53;62.30;;;37.70;;
54368;SDS011;40266;52.434;17.056;2024-03-02T19:04:03;57.20;;;35.50;;
54368;SDS011;40266;52.434;17.056;2024-03-02T19:07:09;60.40;;;36.30;;
54368;SDS011;40266;52.434;17.056;2024-03-02T19:14:27;62.80;;;35.60;;
54368;SDS011;40266;52.434;17.056;2024-03-02T19:17:19;60.20;;;37.90;;
54368;SDS011;40266;52.434;17.056;2024-03-02T19:20:21;60.40;;;37.40;;
54368;SDS011;40266;52.434;17.056;2024-03-02T19:23:17;62.20;;;38.80;;
54368;SDS011;40266;52.434;17.056;2024-03-02T19:29:13;70.60;;;38.60;;
54368;SDS011;40266;52.434;17.056;2024-03-02T19:32:40;65.10;;;38.00;;
54368;SDS011;40266;52.434;17.056;2024-03-02T19:35:51;67.70;;;39.50;;
54368;SDS011;40266;52.434;17.056;2024-03-02T19:38:57;64.80;;;38.20;;
54368;SDS011;40266;52.434;17.056;2024-03-02T19:41:40;61.80;;;37.20;;
54368;SDS011;40266;52.434;17.056;2024-03-02T19:44:29;67.60;;;40.30;;
54368;SDS011;40266;52.434;17.056;2024-03-02T19:47:22;67.40;;;38.70;;
54368;SDS011;40266;52.434;17.056;2024-03-02T19:54:08;90.20;;;41.20;;
54368;SDS011;40266;52.434;17.056;2024-03-02T20:04:36;73.60;;;40.20;;
54368;SDS011;40266;52.434;17.056;2024-03-02T20:12:01;72.10;;;39.70;;
54368;SDS011;40266;52.434;17.056;2024-03-02T20:14:57;67.60;;;39.60;;
54368;SDS011;40266;52.434;17.056;2024-03-02T20:18:03;67.20;;;39.20;;
54368;SDS011;40266;52.434;17.056;2024-03-02T20:20:49;68.50;;;40.30;;
54368;SDS011;40266;52.434;17.056;2024-03-02T20:23:41;67.20;;;39.60;;
54368;SDS011;40266;52.434;17.056;2024-03-02T20:27:09;65.20;;;39.80;;
54368;SDS011;40266;52.434;17.056;2024-03-02T20:29:56;73.70;;;41.30;;
54368;SDS011;40266;52.434;17.056;2024-03-02T20:32:51;69.70;;;39.30;;
54368;SDS011;40266;52.434;17.056;2024-03-02T20:35:39;70.60;;;39.60;;
54368;SDS011;40266;52.434;17.056;2024-03-02T20:38:52;77.60;;;43.90;;
54368;SDS011;40266;52.434;17.056;2024-03-02T20:41:37;70.30;;;39.90;;
54368;SDS011;40266;52.434;17.056;2024-03-02T20:44:23;71.00;;;40.80;;
54368;SDS011;40266;52.434;17.056;2024-03-02T20:47:32;66.40;;;39.20;;
54368;SDS011;40266;52.434;17.056;2024-03-02T20:50:34;69.00;;;40.60;;
54368;SDS011;40266;52.434;17.056;2024-03-02T20:57:05;64.70;;;38.00;;
54368;SDS011;40266;52.434;17.056;2024-03-02T21:00:11;73.10;;;38.60;;
54368;SDS011;40266;52.434;17.056;2024-03-02T21:03:06;66.90;;;40.30;;
54368;SDS011;40266;52.434;17.056;2024-03-02T21:06:10;75.40;;;39.60;;
54368;SDS011;40266;52.434;17.056;2024-03-02T21:12:21;64.70;;;38.20;;
54368;SDS011;40266;52.434;17.056;2024-03-02T21:15:15;65.60;;;38.80;;
54368;SDS011;40266;52.434;17.056;2024-03-02T21:18:19;73.90;;;40.30;;
54368;SDS011;40266;52.434;17.056;2024-03-02T21:21:22;73.10;;;39.70;;
54368;SDS011;40266;52.434;17.056;2024-03-02T21:24:25;65.90;;;37.90;;
54368;SDS011;40266;52.434;17.056;2024-03-02T21:30:35;64.90;;;36.90;;
54368;SDS011;40266;52.434;17.056;2024-03-02T21:36:56;70.10;;;39.70;;
54368;SDS011;40266;52.434;17.056;2024-03-02T21:39:40;65.80;;;37.30;;
54368;SDS011;40266;52.434;17.056;2024-03-02T21:42:31;67.40;;;39.60;;
54368;SDS011;40266;52.434;17.056;2024-03-02T21:45:15;68.80;;;39.60;;
54368;SDS011;40266;52.434;17.056;2024-03-02T21:48:07;65.90;;;39.40;;
54368;SDS011;40266;52.434;17.056;2024-03-02T21:51:01;68.60;;;38.70;;
54368;SDS011;40266;52.434;17.056;2024-03-02T21:54:05;71.60;;;39.50;;
54368;SDS011;40266;52.434;17.056;2024-03-02T21:57:08;72.70;;;40.90;;
54368;SDS011;40266;52.434;17.056;2024-03-02T22:00:09;64.20;;;38.30;;
54368;SDS011;40266;52.434;17.056;2024-03-02T22:02:55;65.10;;;38.20;;
54368;SDS011;40266;52.434;17.056;2024-03-02T22:06:13;68.20;;;40.30;;
54368;SDS011;40266;52.434;17.056;2024-03-02T22:12:12;71.80;;;40.40;;
54368;SDS011;40266;52.434;17.056;2024-03-02T22:15:03;76.20;;;41.90;;
54368;SDS011;40266;52.434;17.056;2024-03-02T22:17:56;72.60;;;41.30;;
54368;SDS011;40266;52.434;17.056;2024-03-02T22:20:49;73.60;;;41.50;;
54368;SDS011;40266;52.434;17.056;2024-03-02T22:30:57;73.70;;;41.80;;
54368;SDS011;40266;52.434;17.056;2024-03-02T22:33:40;75.70;;;45.10;;
54368;SDS011;40266;52.434;17.056;2024-03-02T22:36:37;77.30;;;44.00;;
54368;SDS011;40266;52.434;17.056;2024-03-02T22:39:32;77.90;;;41.70;;
54368;SDS011;40266;52.434;17.056;2024-03-02T22:42:45;71.40;;;43.00;;
54368;SDS011;40266;52.434;17.056;2024-03-02T22:45:54;70.70;;;42.10;;
54368;SDS011;40266;52.434;17.056;2024-03-02T22:49:04;65.20;;;38.20;;
54368;SDS011;40266;52.434;17.056;2024-03-02T22:52:11;87.00;;;43.50;;
54368;SDS011;40266;52.434;17.056;2024-03-02T22:55:17;80.30;;;42.60;;
54368;SDS011;40266;52.434;17.056;2024-03-02T22:58:16;67.80;;;41.10;;
54368;SDS011;40266;52.434;17.056;2024-03-02T23:01:22;71.00;;;41.10;;
54368;SDS011;40266;52.434;17.056;2024-03-02T23:05:01;73.50;;;42.50;;
54368;SDS011;40266;52.434;17.056;2024-03-02T23:08:07;73.00;;;41.00;;
54368;SDS011;40266;52.434;17.056;2024-03-02T23:11:15;72.60;;;41.20;;
54368;SDS011;40266;52.434;17.056;2024-03-02T23:14:08;85.80;;;42.50;;
54368;SDS011;40266;52.434;17.056;2024-03-02T23:17:21;71.60;;;42.60;;
54368;SDS011;40266;52.434;17.056;2024-03-02T23:23:51;67.60;;;40.60;;
54368;SDS011;40266;52.434;17.056;2024-03-02T23:27:15;82.50;;;42.80;;
54368;SDS011;40266;52.434;17.056;2024-03-02T23:34:01;79.90;;;43.00;;
54368;SDS011;40266;52.434;17.056;2024-03-02T23:40:20;77.40;;;42.20;;
54368;SDS011;40266;52.434;17.056;2024-03-02T23:43:45;72.40;;;40.50;;
54368;SDS011;40266;52.434;17.056;2024-03-02T23:49:59;72.60;;;41.20;;
54368;SDS011;40266;52.434;17.056;2024-03-02T23:56:51;69.00;;;39.60;;
54368;SDS011;40266;52.434;17.056;2024-03-02T23:59:43;74.80;;;41.90;;
